Lucky — DK7603 — position and weather

sailwx.info

Track history (hours):
 
Tides and Currents Weather Stations Pressure Air Temp Water Temp Dewpoint Dewpoint Depression Visibility Wind Speed Wind Dir Waves Ship Positions

Lucky

Last reported at 2018-Jan-31 23:00 UTC. Time now 2018-Feb-19 02:43 UTC.
Position N 18°08' W 063°28'.
Warning: this ship's position is 18 days out of date.

Length 12 m.

Type: Sailing vessel. MMSI: 211643450.

Date/timePositionNaut miles runAvg speedWind from/ knotsBaromVisibWave heightAir tempDewpointWater temp
2018-Jan-31 23:00N 18°08' W 063°28'3 5.1
2018-Jan-31 22:27N 18°07' W 063°25'7 5.0
2018-Jan-31 20:59N 18°06' W 063°18'2 5.0
2018-Jan-31 20:30N 18°06' W 063°15'3 4.8
2018-Jan-31 19:58N 18°06' W 063°12'2 3.9
2018-Jan-31 19:28N 18°05' W 063°10'2 4.0
2018-Jan-31 18:57N 18°05' W 063°08'2 3.8
2018-Jan-31 18:28N 18°05' W 063°06'1 2.2
2018-Jan-31 17:58N 18°04' W 063°05'0 0.3
2018-Jan-31 17:30N 18°04' W 063°05'0 0.0
2018-Jan-31 04:14N 18°04' W 063°05'0 0.0
2018-Jan-31 03:59N 18°04' W 063°05'0 0.0
2018-Jan-31 03:29N 18°04' W 063°05'0 0.0
2018-Jan-31 02:50N 18°04' W 063°05'0 0.0
2018-Jan-31 02:20N 18°04' W 063°05'0 0.0
2018-Jan-31 01:58N 18°04' W 063°05'0 0.0
2018-Jan-31 01:28N 18°04' W 063°05'0 0.0
2018-Jan-31 00:58N 18°04' W 063°05'0 0.0
2018-Jan-30 23:58N 18°04' W 063°05'0 0.0
2018-Jan-30 23:28N 18°04' W 063°05'0 0.0
2018-Jan-30 22:50N 18°04' W 063°05'0 0.0
2018-Jan-30 20:25N 18°04' W 063°05'2 3.7
2018-Jan-30 19:56N 18°05' W 063°07'2 3.8
2018-Jan-30 19:25N 18°05' W 063°09'2 3.9
2018-Jan-30 18:55N 18°03' W 063°09'3 4.7
2018-Jan-30 18:22N 18°00' W 063°08'3 5.5
2018-Jan-30 17:54N 17°58' W 063°07'3 5.2
2018-Jan-30 17:24N 17°55' W 063°05'2 5.3
2018-Jan-30 17:00N 17°53' W 063°05'4 5.7
2018-Jan-30 16:23N 17°50' W 063°03'2 6.1
2018-Jan-30 16:00N 17°48' W 063°02'3 5.9
2018-Jan-30 15:30N 17°45' W 063°01'3 6.2
2018-Jan-30 14:59N 17°42' W 063°00'3 5.5
2018-Jan-30 14:29N 17°40' W 062°59'  
2018-Jan-27 16:10N 17°08' W 062°13'1 6.2
2018-Jan-27 15:55N 17°08' W 062°11'3 6.1
2018-Jan-27 15:30N 17°08' W 062°08'3 6.2
2018-Jan-27 15:00N 17°07' W 062°05'3 6.2
2018-Jan-27 14:30N 17°07' W 062°02'3 6.2
2018-Jan-27 14:00N 17°05' W 061°59'3 5.8
2018-Jan-27 13:30N 17°05' W 061°56'2 4.2
2018-Jan-27 12:56N 17°05' W 061°54'0 0.0
2018-Jan-27 12:11N 17°05' W 061°54'0 0.0
2018-Jan-27 11:59N 17°05' W 061°54'0 0.0
2018-Jan-27 11:29N 17°05' W 061°54'0 0.0
2018-Jan-27 01:50N 17°05' W 061°54'0 0.0
2018-Jan-27 01:23N 17°05' W 061°54'0 0.0
2018-Jan-27 00:47N 17°05' W 061°54'0 0.0
2018-Jan-27 00:29N 17°05' W 061°54'0 0.0
2018-Jan-26 23:53N 17°05' W 061°54'0 0.0
2018-Jan-26 23:29N 17°05' W 061°54'0 0.0
2018-Jan-26 22:58N 17°05' W 061°54'0 0.0
2018-Jan-26 22:28N 17°05' W 061°54'0 0.0
2018-Jan-26 21:42N 17°05' W 061°54'0 0.0
2018-Jan-26 21:27N 17°05' W 061°54'0 0.0
2018-Jan-26 21:00N 17°05' W 061°54'0 0.0
2018-Jan-26 20:30N 17°05' W 061°54'0 0.0
2018-Jan-26 20:00N 17°05' W 061°54'0 0.0
2018-Jan-26 19:27N 17°05' W 061°54'0 0.0
2018-Jan-26 19:00N 17°05' W 061°54'0 0.1
2018-Jan-26 18:28N 17°04' W 061°54'1 3.2
2018-Jan-26 18:00N 17°05' W 061°55'2 4.4
2018-Jan-26 17:30N 17°07' W 061°54'0 0.1
2018-Jan-26 16:58N 17°07' W 061°54'1 2.7
2018-Jan-26 16:30N 17°06' W 061°55'2 3.9
2018-Jan-26 16:00N 17°04' W 061°55'3 2.9
2018-Jan-26 15:02N 17°02' W 061°54'0 2.7
2018-Jan-26 14:57N 17°01' W 061°54'2 3.7
2018-Jan-26 14:30N 16°60' W 061°53'2 4.1
2018-Jan-26 14:00N 16°60' W 061°51'2 4.2
2018-Jan-26 13:30N 16°60' W 061°49'2 3.7
2018-Jan-26 13:00N 17°01' W 061°47'1 1.2
2018-Jan-26 12:30N 17°01' W 061°46'0 0.0
2018-Jan-26 12:00N 17°01' W 061°46'0 0.0
2018-Jan-26 11:30N 17°01' W 061°46'0 0.0
2018-Jan-26 11:00N 17°01' W 061°46'0 0.0
2018-Jan-26 10:30N 17°01' W 061°46'0 0.0
2018-Jan-26 10:00N 17°01' W 061°46'0 0.0
2018-Jan-26 09:30N 17°01' W 061°46'0 0.0
2018-Jan-26 09:00N 17°01' W 061°46'0 0.0
2018-Jan-26 08:30N 17°01' W 061°46'0 0.0
2018-Jan-26 08:00N 17°01' W 061°46'0 0.0
2018-Jan-26 07:30N 17°01' W 061°46'0 0.0
2018-Jan-26 07:00N 17°01' W 061°46'0 0.0
2018-Jan-26 06:30N 17°01' W 061°46'0 0.0
2018-Jan-26 06:00N 17°01' W 061°46'0 0.0
2018-Jan-26 05:30N 17°01' W 061°46'0 0.0
2018-Jan-26 05:00N 17°01' W 061°46'0 0.0
2018-Jan-26 04:30N 17°01' W 061°46'0 0.0
2018-Jan-26 04:00N 17°01' W 061°46'0 0.0
2018-Jan-26 03:30N 17°01' W 061°46'0 0.0
2018-Jan-26 03:00N 17°01' W 061°46'0 0.0
2018-Jan-26 02:30N 17°01' W 061°46'0 0.0
2018-Jan-26 02:00N 17°01' W 061°46'0 0.0
2018-Jan-26 01:30N 17°01' W 061°46'0 0.0
2018-Jan-26 01:00N 17°01' W 061°46'0 0.0
2018-Jan-26 00:30N 17°01' W 061°46'0 0.0
2018-Jan-26 00:00N 17°01' W 061°46'0 0.0
2018-Jan-25 23:30N 17°01' W 061°46'0 0.0
2018-Jan-25 23:00N 17°01' W 061°46'0 0.0
2018-Jan-25 22:30N 17°01' W 061°46'0 0.0
2018-Jan-25 22:00N 17°01' W 061°46'0 0.0
2018-Jan-25 21:30N 17°01' W 061°46'0 0.0
2018-Jan-25 21:00N 17°01' W 061°46'0 0.0
2018-Jan-25 20:30N 17°01' W 061°46'0 0.0
2018-Jan-25 20:00N 17°01' W 061°46'0 0.0
2018-Jan-25 19:30N 17°01' W 061°46'0 0.0
2018-Jan-25 19:00N 17°01' W 061°46'0 0.0
2018-Jan-25 18:30N 17°01' W 061°46'0 0.0
2018-Jan-25 18:00N 17°01' W 061°46'0 0.0
2018-Jan-25 17:30N 17°01' W 061°46'0 0.0
2018-Jan-25 16:58N 17°01' W 061°46'0 0.0
2018-Jan-25 16:28N 17°01' W 061°46'0 0.0
2018-Jan-25 15:58N 17°01' W 061°46'0 0.0
2018-Jan-25 15:28N 17°01' W 061°46'0 0.0
2018-Jan-25 14:58N 17°01' W 061°46'0 0.4
2018-Jan-25 14:30N 17°01' W 061°46'0 0.0
2018-Jan-25 14:00N 17°01' W 061°46'0 0.0
2018-Jan-25 13:30N 17°01' W 061°46'0 0.0
2018-Jan-25 13:00N 17°01' W 061°46'0 0.0
2018-Jan-25 12:30N 17°01' W 061°46'0 0.0
2018-Jan-25 12:00N 17°01' W 061°46'0 0.0
2018-Jan-25 11:30N 17°01' W 061°46'0 0.0
2018-Jan-25 11:00N 17°01' W 061°46'0 0.0
2018-Jan-25 10:28N 17°01' W 061°46'0 0.0
2018-Jan-25 09:58N 17°01' W 061°46'0 0.0
2018-Jan-25 09:28N 17°01' W 061°46'0 0.0
2018-Jan-25 08:58N 17°01' W 061°46'0 0.0
2018-Jan-25 08:28N 17°01' W 061°46'0 0.0
2018-Jan-25 07:58N 17°01' W 061°46'0 0.0
2018-Jan-25 07:28N 17°01' W 061°46'0 0.0
2018-Jan-25 06:58N 17°01' W 061°46'0 0.0
2018-Jan-25 06:28N 17°01' W 061°46'0 0.0
2018-Jan-25 05:58N 17°01' W 061°46'0 0.0
2018-Jan-25 05:28N 17°01' W 061°46'0 0.0
2018-Jan-25 04:58N 17°01' W 061°46'0 0.0
2018-Jan-25 04:28N 17°01' W 061°46'0 0.0
2018-Jan-25 03:58N 17°01' W 061°46'0 0.0
2018-Jan-25 03:28N 17°01' W 061°46'0 0.0
2018-Jan-25 02:58N 17°01' W 061°46'0 0.0
2018-Jan-25 02:28N 17°01' W 061°46'0 0.0
2018-Jan-25 01:58N 17°01' W 061°46'0 0.0
2018-Jan-25 01:28N 17°01' W 061°46'0 0.0
2018-Jan-25 00:58N 17°01' W 061°46'0 0.0
2018-Jan-25 00:28N 17°01' W 061°46'0 0.0
2018-Jan-24 23:58N 17°01' W 061°46'0 0.0
2018-Jan-24 23:28N 17°01' W 061°46'0 0.0
2018-Jan-24 22:58N 17°01' W 061°46'0 0.0
2018-Jan-24 22:28N 17°01' W 061°46'0 0.0
2018-Jan-24 21:58N 17°01' W 061°46'0 0.0
2018-Jan-24 21:28N 17°01' W 061°46'0 0.0
2018-Jan-24 20:58N 17°01' W 061°46'0 0.0
2018-Jan-24 20:28N 17°01' W 061°46'0 0.0
2018-Jan-24 19:58N 17°01' W 061°46'0 0.0
2018-Jan-24 19:28N 17°01' W 061°46'0 0.0
2018-Jan-24 18:55N 17°01' W 061°46'0 0.0
2018-Jan-24 18:29N 17°01' W 061°46'0 0.0
2018-Jan-24 17:59N 17°01' W 061°46'0 0.0
2018-Jan-24 17:29N 17°01' W 061°46'0 0.0
2018-Jan-24 16:59N 17°01' W 061°46'0 0.0
2018-Jan-24 16:29N 17°01' W 061°46'0 0.0
2018-Jan-24 15:59N 17°01' W 061°46'0 0.0
2018-Jan-24 15:28N 17°01' W 061°46'0 0.0
2018-Jan-24 14:58N 17°01' W 061°46'0 0.0
2018-Jan-24 14:28N 17°01' W 061°46'0 0.0
2018-Jan-24 13:58N 17°01' W 061°46'0 0.0
2018-Jan-24 13:28N 17°01' W 061°46'0 0.0
2018-Jan-24 12:58N 17°01' W 061°46'0 0.0
2018-Jan-24 12:28N 17°01' W 061°46'0 0.0
2018-Jan-24 11:58N 17°01' W 061°46'0 0.0
2018-Jan-24 11:28N 17°01' W 061°46'0 0.0
2018-Jan-24 10:56N 17°01' W 061°46'0 0.0
2018-Jan-24 10:30N 17°01' W 061°46'0 0.0
2018-Jan-24 10:00N 17°01' W 061°46'0 0.0
2018-Jan-24 09:30N 17°01' W 061°46'0 0.0
2018-Jan-24 09:00N 17°01' W 061°46'0 0.0
2018-Jan-24 08:30N 17°01' W 061°46'0 0.0
2018-Jan-24 08:00N 17°01' W 061°46'0 0.0
2018-Jan-24 07:27N 17°01' W 061°46'0 0.0
2018-Jan-24 07:00N 17°01' W 061°46'0 0.0
2018-Jan-24 06:30N 17°01' W 061°46'0 0.0
2018-Jan-24 06:00N 17°01' W 061°46'0 0.0
2018-Jan-24 05:30N 17°01' W 061°46'0 0.0
2018-Jan-24 04:57N 17°01' W 061°46'0 0.0
2018-Jan-24 04:30N 17°01' W 061°46'0 0.0
2018-Jan-24 04:00N 17°01' W 061°46'0 0.0
2018-Jan-24 03:30N 17°01' W 061°46'0 0.0
2018-Jan-24 03:00N 17°01' W 061°46'0 0.0
2018-Jan-24 02:30N 17°01' W 061°46'0 0.0
2018-Jan-24 02:00N 17°01' W 061°46'0 0.0
2018-Jan-24 01:27N 17°01' W 061°46'0 0.0
2018-Jan-24 01:00N 17°01' W 061°46'0 0.0
2018-Jan-24 00:30N 17°01' W 061°46'0 0.0
2018-Jan-24 00:00N 17°01' W 061°46'0 0.0
2018-Jan-23 23:30N 17°01' W 061°46'0 0.0
2018-Jan-23 23:00N 17°01' W 061°46'0 0.0
2018-Jan-23 22:27N 17°01' W 061°46'0 0.0
2018-Jan-23 22:00N 17°01' W 061°46'0 0.0
2018-Jan-23 21:29N 17°01' W 061°46'1 2.4
2018-Jan-23 21:01N 17°00' W 061°46'0 0.3
2018-Jan-23 20:31N 17°00' W 061°46'0 0.0
2018-Jan-23 20:01N 17°00' W 061°46'0 0.1
2018-Jan-23 19:30N 17°00' W 061°46'2 3.9
2018-Jan-23 19:00N 16°58' W 061°45'3 6.0
2018-Jan-23 18:30N 16°55' W 061°45'3 5.1
2018-Jan-23 18:00N 16°53' W 061°45'3 5.3
2018-Jan-23 17:31N 16°50' W 061°45'2 4.6
2018-Jan-23 17:00N 16°48' W 061°46'2 4.8
2018-Jan-23 16:30N 16°45' W 061°46'2 4.9
2018-Jan-23 16:00N 16°43' W 061°46'3 5.2
2018-Jan-23 15:30N 16°40' W 061°46'3 5.3
2018-Jan-23 15:00N 16°38' W 061°47'3 5.3
2018-Jan-23 14:30N 16°35' W 061°47'3 5.2
2018-Jan-23 14:00N 16°33' W 061°47'3 5.8
2018-Jan-23 13:28N 16°29' W 061°47'7 5.1
2018-Jan-23 12:01N 16°22' W 061°48'  
Track history (hours):
 
Tides and Currents Weather Stations Pressure Air Temp Water Temp Dewpoint Dewpoint Depression Visibility Wind Speed Wind Dir Waves Ship Positions

Lucky

Last reported at 2018-Jan-31 23:00 UTC. Time now 2018-Feb-19 02:43 UTC.
Position N 18°08' W 063°28'.
Warning: this ship's position is 18 days out of date.

Length 12 m.

Type: Sailing vessel. MMSI: 211643450.

Date/timePositionNaut miles runAvg speedWind from/ knotsBaromVisibWave heightAir tempDewpointWater temp
2018-Jan-31 23:00N 18°08' W 063°28'3 5.1
2018-Jan-31 22:27N 18°07' W 063°25'7 5.0
2018-Jan-31 20:59N 18°06' W 063°18'2 5.0
2018-Jan-31 20:30N 18°06' W 063°15'3 4.8
2018-Jan-31 19:58N 18°06' W 063°12'2 3.9
2018-Jan-31 19:28N 18°05' W 063°10'2 4.0
2018-Jan-31 18:57N 18°05' W 063°08'2 3.8
2018-Jan-31 18:28N 18°05' W 063°06'1 2.2
2018-Jan-31 17:58N 18°04' W 063°05'0 0.3
2018-Jan-31 17:30N 18°04' W 063°05'0 0.0
2018-Jan-31 04:14N 18°04' W 063°05'0 0.0
2018-Jan-31 03:59N 18°04' W 063°05'0 0.0
2018-Jan-31 03:29N 18°04' W 063°05'0 0.0
2018-Jan-31 02:50N 18°04' W 063°05'0 0.0
2018-Jan-31 02:20N 18°04' W 063°05'0 0.0
2018-Jan-31 01:58N 18°04' W 063°05'0 0.0
2018-Jan-31 01:28N 18°04' W 063°05'0 0.0
2018-Jan-31 00:58N 18°04' W 063°05'0 0.0
2018-Jan-30 23:58N 18°04' W 063°05'0 0.0
2018-Jan-30 23:28N 18°04' W 063°05'0 0.0
2018-Jan-30 22:50N 18°04' W 063°05'0 0.0
2018-Jan-30 20:25N 18°04' W 063°05'2 3.7
2018-Jan-30 19:56N 18°05' W 063°07'2 3.8
2018-Jan-30 19:25N 18°05' W 063°09'2 3.9
2018-Jan-30 18:55N 18°03' W 063°09'3 4.7
2018-Jan-30 18:22N 18°00' W 063°08'3 5.5
2018-Jan-30 17:54N 17°58' W 063°07'3 5.2
2018-Jan-30 17:24N 17°55' W 063°05'2 5.3
2018-Jan-30 17:00N 17°53' W 063°05'4 5.7
2018-Jan-30 16:23N 17°50' W 063°03'2 6.1
2018-Jan-30 16:00N 17°48' W 063°02'3 5.9
2018-Jan-30 15:30N 17°45' W 063°01'3 6.2
2018-Jan-30 14:59N 17°42' W 063°00'3 5.5
2018-Jan-30 14:29N 17°40' W 062°59'  
2018-Jan-27 16:10N 17°08' W 062°13'1 6.2
2018-Jan-27 15:55N 17°08' W 062°11'3 6.1
2018-Jan-27 15:30N 17°08' W 062°08'3 6.2
2018-Jan-27 15:00N 17°07' W 062°05'3 6.2
2018-Jan-27 14:30N 17°07' W 062°02'3 6.2
2018-Jan-27 14:00N 17°05' W 061°59'3 5.8
2018-Jan-27 13:30N 17°05' W 061°56'2 4.2
2018-Jan-27 12:56N 17°05' W 061°54'0 0.0
2018-Jan-27 12:11N 17°05' W 061°54'0 0.0
2018-Jan-27 11:59N 17°05' W 061°54'0 0.0
2018-Jan-27 11:29N 17°05' W 061°54'0 0.0
2018-Jan-27 01:50N 17°05' W 061°54'0 0.0
2018-Jan-27 01:23N 17°05' W 061°54'0 0.0
2018-Jan-27 00:47N 17°05' W 061°54'0 0.0
2018-Jan-27 00:29N 17°05' W 061°54'0 0.0
2018-Jan-26 23:53N 17°05' W 061°54'0 0.0
2018-Jan-26 23:29N 17°05' W 061°54'0 0.0
2018-Jan-26 22:58N 17°05' W 061°54'0 0.0
2018-Jan-26 22:28N 17°05' W 061°54'0 0.0
2018-Jan-26 21:42N 17°05' W 061°54'0 0.0
2018-Jan-26 21:27N 17°05' W 061°54'0 0.0
2018-Jan-26 21:00N 17°05' W 061°54'0 0.0
2018-Jan-26 20:30N 17°05' W 061°54'0 0.0
2018-Jan-26 20:00N 17°05' W 061°54'0 0.0
2018-Jan-26 19:27N 17°05' W 061°54'0 0.0
2018-Jan-26 19:00N 17°05' W 061°54'0 0.1
2018-Jan-26 18:28N 17°04' W 061°54'1 3.2
2018-Jan-26 18:00N 17°05' W 061°55'2 4.4
2018-Jan-26 17:30N 17°07' W 061°54'0 0.1
2018-Jan-26 16:58N 17°07' W 061°54'1 2.7
2018-Jan-26 16:30N 17°06' W 061°55'2 3.9
2018-Jan-26 16:00N 17°04' W 061°55'3 2.9
2018-Jan-26 15:02N 17°02' W 061°54'0 2.7
2018-Jan-26 14:57N 17°01' W 061°54'2 3.7
2018-Jan-26 14:30N 16°60' W 061°53'2 4.1
2018-Jan-26 14:00N 16°60' W 061°51'2 4.2
2018-Jan-26 13:30N 16°60' W 061°49'2 3.7
2018-Jan-26 13:00N 17°01' W 061°47'1 1.2
2018-Jan-26 12:30N 17°01' W 061°46'0 0.0
2018-Jan-26 12:00N 17°01' W 061°46'0 0.0
2018-Jan-26 11:30N 17°01' W 061°46'0 0.0
2018-Jan-26 11:00N 17°01' W 061°46'0 0.0
2018-Jan-26 10:30N 17°01' W 061°46'0 0.0
2018-Jan-26 10:00N 17°01' W 061°46'0 0.0
2018-Jan-26 09:30N 17°01' W 061°46'0 0.0
2018-Jan-26 09:00N 17°01' W 061°46'0 0.0
2018-Jan-26 08:30N 17°01' W 061°46'0 0.0
2018-Jan-26 08:00N 17°01' W 061°46'0 0.0
2018-Jan-26 07:30N 17°01' W 061°46'0 0.0
2018-Jan-26 07:00N 17°01' W 061°46'0 0.0
2018-Jan-26 06:30N 17°01' W 061°46'0 0.0
2018-Jan-26 06:00N 17°01' W 061°46'0 0.0
2018-Jan-26 05:30N 17°01' W 061°46'0 0.0
2018-Jan-26 05:00N 17°01' W 061°46'0 0.0
2018-Jan-26 04:30N 17°01' W 061°46'0 0.0
2018-Jan-26 04:00N 17°01' W 061°46'0 0.0
2018-Jan-26 03:30N 17°01' W 061°46'0 0.0
2018-Jan-26 03:00N 17°01' W 061°46'0 0.0
2018-Jan-26 02:30N 17°01' W 061°46'0 0.0
2018-Jan-26 02:00N 17°01' W 061°46'0 0.0
2018-Jan-26 01:30N 17°01' W 061°46'0 0.0
2018-Jan-26 01:00N 17°01' W 061°46'0 0.0
2018-Jan-26 00:30N 17°01' W 061°46'0 0.0
2018-Jan-26 00:00N 17°01' W 061°46'0 0.0
2018-Jan-25 23:30N 17°01' W 061°46'0 0.0
2018-Jan-25 23:00N 17°01' W 061°46'0 0.0
2018-Jan-25 22:30N 17°01' W 061°46'0 0.0
2018-Jan-25 22:00N 17°01' W 061°46'0 0.0
2018-Jan-25 21:30N 17°01' W 061°46'0 0.0
2018-Jan-25 21:00N 17°01' W 061°46'0 0.0
2018-Jan-25 20:30N 17°01' W 061°46'0 0.0
2018-Jan-25 20:00N 17°01' W 061°46'0 0.0
2018-Jan-25 19:30N 17°01' W 061°46'0 0.0
2018-Jan-25 19:00N 17°01' W 061°46'0 0.0
2018-Jan-25 18:30N 17°01' W 061°46'0 0.0
2018-Jan-25 18:00N 17°01' W 061°46'0 0.0
2018-Jan-25 17:30N 17°01' W 061°46'0 0.0
2018-Jan-25 16:58N 17°01' W 061°46'0 0.0
2018-Jan-25 16:28N 17°01' W 061°46'0 0.0
2018-Jan-25 15:58N 17°01' W 061°46'0 0.0
2018-Jan-25 15:28N 17°01' W 061°46'0 0.0
2018-Jan-25 14:58N 17°01' W 061°46'0 0.4
2018-Jan-25 14:30N 17°01' W 061°46'0 0.0
2018-Jan-25 14:00N 17°01' W 061°46'0 0.0
2018-Jan-25 13:30N 17°01' W 061°46'0 0.0
2018-Jan-25 13:00N 17°01' W 061°46'0 0.0
2018-Jan-25 12:30N 17°01' W 061°46'0 0.0
2018-Jan-25 12:00N 17°01' W 061°46'0 0.0
2018-Jan-25 11:30N 17°01' W 061°46'0 0.0
2018-Jan-25 11:00N 17°01' W 061°46'0 0.0
2018-Jan-25 10:28N 17°01' W 061°46'0 0.0
2018-Jan-25 09:58N 17°01' W 061°46'0 0.0
2018-Jan-25 09:28N 17°01' W 061°46'0 0.0
2018-Jan-25 08:58N 17°01' W 061°46'0 0.0
2018-Jan-25 08:28N 17°01' W 061°46'0 0.0
2018-Jan-25 07:58N 17°01' W 061°46'0 0.0
2018-Jan-25 07:28N 17°01' W 061°46'0 0.0
2018-Jan-25 06:58N 17°01' W 061°46'0 0.0
2018-Jan-25 06:28N 17°01' W 061°46'0 0.0
2018-Jan-25 05:58N 17°01' W 061°46'0 0.0
2018-Jan-25 05:28N 17°01' W 061°46'0 0.0
2018-Jan-25 04:58N 17°01' W 061°46'0 0.0
2018-Jan-25 04:28N 17°01' W 061°46'0 0.0
2018-Jan-25 03:58N 17°01' W 061°46'0 0.0
2018-Jan-25 03:28N 17°01' W 061°46'0 0.0
2018-Jan-25 02:58N 17°01' W 061°46'0 0.0
2018-Jan-25 02:28N 17°01' W 061°46'0 0.0
2018-Jan-25 01:58N 17°01' W 061°46'0 0.0
2018-Jan-25 01:28N 17°01' W 061°46'0 0.0
2018-Jan-25 00:58N 17°01' W 061°46'0 0.0
2018-Jan-25 00:28N 17°01' W 061°46'0 0.0
2018-Jan-24 23:58N 17°01' W 061°46'0 0.0
2018-Jan-24 23:28N 17°01' W 061°46'0 0.0
2018-Jan-24 22:58N 17°01' W 061°46'0 0.0
2018-Jan-24 22:28N 17°01' W 061°46'0 0.0
2018-Jan-24 21:58N 17°01' W 061°46'0 0.0
2018-Jan-24 21:28N 17°01' W 061°46'0 0.0
2018-Jan-24 20:58N 17°01' W 061°46'0 0.0
2018-Jan-24 20:28N 17°01' W 061°46'0 0.0
2018-Jan-24 19:58N 17°01' W 061°46'0 0.0
2018-Jan-24 19:28N 17°01' W 061°46'0 0.0
2018-Jan-24 18:55N 17°01' W 061°46'0 0.0
2018-Jan-24 18:29N 17°01' W 061°46'0 0.0
2018-Jan-24 17:59N 17°01' W 061°46'0 0.0
2018-Jan-24 17:29N 17°01' W 061°46'0 0.0
2018-Jan-24 16:59N 17°01' W 061°46'0 0.0
2018-Jan-24 16:29N 17°01' W 061°46'0 0.0
2018-Jan-24 15:59N 17°01' W 061°46'0 0.0
2018-Jan-24 15:28N 17°01' W 061°46'0 0.0
2018-Jan-24 14:58N 17°01' W 061°46'0 0.0
2018-Jan-24 14:28N 17°01' W 061°46'0 0.0
2018-Jan-24 13:58N 17°01' W 061°46'0 0.0
2018-Jan-24 13:28N 17°01' W 061°46'0 0.0
2018-Jan-24 12:58N 17°01' W 061°46'0 0.0
2018-Jan-24 12:28N 17°01' W 061°46'0 0.0
2018-Jan-24 11:58N 17°01' W 061°46'0 0.0
2018-Jan-24 11:28N 17°01' W 061°46'0 0.0
2018-Jan-24 10:56N 17°01' W 061°46'0 0.0
2018-Jan-24 10:30N 17°01' W 061°46'0 0.0
2018-Jan-24 10:00N 17°01' W 061°46'0 0.0
2018-Jan-24 09:30N 17°01' W 061°46'0 0.0
2018-Jan-24 09:00N 17°01' W 061°46'0 0.0
2018-Jan-24 08:30N 17°01' W 061°46'0 0.0
2018-Jan-24 08:00N 17°01' W 061°46'0 0.0
2018-Jan-24 07:27N 17°01' W 061°46'0 0.0
2018-Jan-24 07:00N 17°01' W 061°46'0 0.0
2018-Jan-24 06:30N 17°01' W 061°46'0 0.0
2018-Jan-24 06:00N 17°01' W 061°46'0 0.0
2018-Jan-24 05:30N 17°01' W 061°46'0 0.0
2018-Jan-24 04:57N 17°01' W 061°46'0 0.0
2018-Jan-24 04:30N 17°01' W 061°46'0 0.0
2018-Jan-24 04:00N 17°01' W 061°46'0 0.0
2018-Jan-24 03:30N 17°01' W 061°46'0 0.0
2018-Jan-24 03:00N 17°01' W 061°46'0 0.0
2018-Jan-24 02:30N 17°01' W 061°46'0 0.0
2018-Jan-24 02:00N 17°01' W 061°46'0 0.0
2018-Jan-24 01:27N 17°01' W 061°46'0 0.0
2018-Jan-24 01:00N 17°01' W 061°46'0 0.0
2018-Jan-24 00:30N 17°01' W 061°46'0 0.0
2018-Jan-24 00:00N 17°01' W 061°46'0 0.0
2018-Jan-23 23:30N 17°01' W 061°46'0 0.0
2018-Jan-23 23:00N 17°01' W 061°46'0 0.0
2018-Jan-23 22:27N 17°01' W 061°46'0 0.0
2018-Jan-23 22:00N 17°01' W 061°46'0 0.0
2018-Jan-23 21:29N 17°01' W 061°46'1 2.4
2018-Jan-23 21:01N 17°00' W 061°46'0 0.3
2018-Jan-23 20:31N 17°00' W 061°46'0 0.0
2018-Jan-23 20:01N 17°00' W 061°46'0 0.1
2018-Jan-23 19:30N 17°00' W 061°46'2 3.9
2018-Jan-23 19:00N 16°58' W 061°45'3 6.0
2018-Jan-23 18:30N 16°55' W 061°45'3 5.1
2018-Jan-23 18:00N 16°53' W 061°45'3 5.3
2018-Jan-23 17:31N 16°50' W 061°45'2 4.6
2018-Jan-23 17:00N 16°48' W 061°46'2 4.8
2018-Jan-23 16:30N 16°45' W 061°46'2 4.9
2018-Jan-23 16:00N 16°43' W 061°46'3 5.2
2018-Jan-23 15:30N 16°40' W 061°46'3 5.3
2018-Jan-23 15:00N 16°38' W 061°47'3 5.3
2018-Jan-23 14:30N 16°35' W 061°47'3 5.2
2018-Jan-23 14:00N 16°33' W 061°47'3 5.8
2018-Jan-23 13:28N 16°29' W 061°47'7 5.1
2018-Jan-23 12:01N 16°22' W 061°48'  

Dump ship's entire track history